aviador You're here:

YSCB Decoded Metar

CANBERRA in AUSTRALIA
Report Time2017-12-15 17:30:00
UTC Time2017-12-15 17:53:38
Flight Rules vfr VFR
Wind160° at 02 kt
W.Decomp.*RWY 17: 1.9 kt HW 0.7 kt LCW
RWY 12: 1.8 kt HW 0.9 kt RCW
W.Rank160° ranks 21
Current wind is below 160° avg. (5.9)
Visibility9999 m
Phenomena:N/A
Clouds:N/A
Expected CloudBase > 800 ft AGL from Temp-Dew spread
CeilingNone
Temp16°C (ISA +5)
Dew Point14°C (88% RH)
QNH1014 hPa
Density Alt2,641 ft
Elevation1,893 ft
Report Wrong Elevation
Raw Report
YSCB 151730Z AUTO 16002KT 9999 // NCD 16/14 Q1014=

Extra information for YSCB:More info

Metar Taf Metar & Taf Last 4 Metars F.Rules Stats Wind Profile Meteogram Temp Stats Airport Information Weather charts Add Link Nearby VenuesMetar ALERT Operation Metar Decoded Social comments